createdAt,value
2018-04-07T00:02:19.223Z,39.63
2018-04-07T00:04:46.875Z,38.50
2018-04-07T00:07:14.459Z,33.97
2018-04-07T00:09:42.019Z,39.97
2018-04-07T00:12:09.621Z,40.30
2018-04-07T00:14:37.243Z,38.23
2018-04-07T00:17:04.800Z,40.10
2018-04-07T00:19:33.233Z,33.57
2018-04-07T00:22:01.003Z,33.13
2018-04-07T00:24:28.604Z,30.30
2018-04-07T00:26:56.204Z,31.63
2018-04-07T00:29:23.983Z,32.73
2018-04-07T00:31:51.554Z,29.43
2018-04-07T00:34:19.151Z,28.03
2018-04-07T00:36:46.787Z,26.97
2018-04-07T00:39:14.416Z,26.80
2018-04-07T00:41:42.019Z,25.27
2018-04-07T00:44:10.340Z,23.30
2018-04-07T00:46:38.079Z,20.90
2018-04-07T00:49:06.447Z,21.47
2018-04-07T00:51:34.048Z,20.60
2018-04-07T00:54:01.682Z,20.90
2018-04-07T00:56:30.301Z,20.40
2018-04-07T00:58:57.868Z,20.73
2018-04-07T01:01:25.495Z,20.73
2018-04-07T01:03:53.115Z,20.83
2018-04-07T01:06:20.680Z,20.67
2018-04-07T01:08:48.251Z,21.07
2018-04-07T01:11:16.628Z,22.60
2018-04-07T01:13:44.299Z,23.33
2018-04-07T01:16:11.863Z,23.40
2018-04-07T01:18:40.225Z,21.70
2018-04-07T01:21:07.797Z,22.30
2018-04-07T01:23:36.123Z,20.97
2018-04-07T01:26:03.726Z,24.63
2018-04-07T01:28:32.111Z,25.20
2018-04-07T01:30:59.752Z,26.70
2018-04-07T01:33:27.347Z,25.30
2018-04-07T01:35:55.151Z,28.37
2018-04-07T01:38:22.798Z,27.77
2018-04-07T01:40:50.415Z,24.17
2018-04-07T01:43:17.984Z,21.77
2018-04-07T01:45:45.551Z,22.00
2018-04-07T01:48:13.267Z,22.37
2018-04-07T01:50:40.828Z,24.20
2018-04-07T01:53:09.159Z,24.63
2018-04-07T01:55:36.757Z,26.53
2018-04-07T01:58:04.343Z,26.43
2018-04-07T02:00:32.720Z,24.70
2018-04-07T02:03:00.320Z,25.10
2018-04-07T02:05:27.883Z,22.30
2018-04-07T02:07:55.514Z,21.70
2018-04-07T02:10:23.165Z,21.03
2018-04-07T02:12:50.731Z,20.63
2018-04-07T02:15:18.343Z,20.43
2018-04-07T02:17:45.957Z,20.30
2018-04-07T02:20:13.587Z,31.67
2018-04-07T02:22:41.288Z,28.00
2018-04-07T02:25:09.036Z,28.00
2018-04-07T02:27:36.636Z,27.73
2018-04-07T02:30:04.199Z,25.53
2018-04-07T02:32:31.869Z,26.13
2018-04-07T02:35:00.196Z,23.03
2018-04-07T02:37:27.768Z,22.57
2018-04-07T02:39:55.400Z,22.83
2018-04-07T02:42:23.796Z,23.57
2018-04-07T02:44:51.425Z,23.50
2018-04-07T02:47:19.048Z,25.10
2018-04-07T02:49:46.853Z,25.47
2018-04-07T02:52:15.182Z,25.17
2018-04-07T02:54:43.136Z,25.77
2018-04-07T02:57:10.712Z,24.87
2018-04-07T02:59:38.311Z,23.07
2018-04-07T03:02:06.679Z,23.63
2018-04-07T03:04:34.395Z,85.63
2018-04-07T03:07:01.967Z,140.37
2018-04-07T03:09:31.216Z,25.87
2018-04-07T03:11:59.543Z,24.17
2018-04-07T03:14:27.171Z,33.43
2018-04-07T03:16:55.585Z,45.63
2018-04-07T03:19:23.152Z,122.30
2018-04-07T03:21:50.717Z,80.47
2018-04-07T03:24:18.334Z,203.90
2018-04-07T03:26:45.899Z,49.03
2018-04-07T03:29:13.515Z,55.50
2018-04-07T03:31:41.892Z,29.73
2018-04-07T03:34:09.455Z,41.67
2018-04-07T03:36:37.793Z,25.37
2018-04-07T03:39:06.127Z,55.60
2018-04-07T03:41:33.755Z,27.27
2018-04-07T03:44:01.314Z,45.83
2018-04-07T03:46:28.919Z,39.23
2018-04-07T03:48:56.524Z,37.87
2018-04-07T03:51:24.307Z,74.63
2018-04-07T03:53:52.672Z,68.13
2018-04-07T03:56:20.239Z,30.73
2018-04-07T03:58:48.624Z,27.97
2018-04-07T04:01:16.216Z,27.97
2018-04-07T04:03:43.839Z,27.40
2018-04-07T04:06:12.224Z,28.57
2018-04-07T04:08:39.848Z,31.20
2018-04-07T04:11:07.410Z,29.63
2018-04-07T04:13:35.147Z,34.13
2018-04-07T04:16:02.754Z,29.77
2018-04-07T04:18:31.083Z,31.83
2018-04-07T04:20:58.812Z,33.70
2018-04-07T04:23:26.487Z,40.07
2018-04-07T04:25:54.047Z,38.83
2018-04-07T04:28:21.655Z,42.13
2018-04-07T04:30:49.251Z,36.10
2018-04-07T04:33:16.825Z,33.87
2018-04-07T04:35:44.395Z,51.33
2018-04-07T04:38:11.994Z,35.90
2018-04-07T04:40:39.588Z,34.57
2018-04-07T04:43:07.152Z,34.50
2018-04-07T04:45:34.763Z,54.93
2018-04-07T04:48:02.323Z,36.70
2018-04-07T04:50:29.950Z,37.57
2018-04-07T04:52:57.668Z,79.97
2018-04-07T04:55:25.991Z,57.43
2018-04-07T04:57:53.572Z,47.57
2018-04-07T05:00:21.207Z,46.63
2018-04-07T05:02:48.767Z,45.00
2018-04-07T05:05:16.355Z,49.57
2018-04-07T05:07:43.951Z,45.47
2018-04-07T05:10:11.516Z,49.00
2018-04-07T05:12:39.083Z,48.13
2018-04-07T05:15:06.703Z,60.67
2018-04-07T05:17:34.269Z,44.43
2018-04-07T05:20:02.642Z,43.20
2018-04-07T05:22:30.301Z,63.83
2018-04-07T05:24:57.905Z,56.07
2018-04-07T05:27:25.481Z,41.47
2018-04-07T05:29:53.083Z,38.73
2018-04-07T05:32:20.651Z,36.53
2018-04-07T05:34:49.003Z,37.40
2018-04-07T05:37:16.605Z,33.97
2018-04-07T05:39:44.165Z,31.53
2018-04-07T05:42:11.818Z,35.20
2018-04-07T05:44:39.431Z,38.17
2018-04-07T05:47:06.996Z,31.00
2018-04-07T05:49:34.623Z,29.67
2018-04-07T05:52:02.247Z,30.53
2018-04-07T05:54:30.154Z,29.37
2018-04-07T05:56:57.780Z,30.30
2018-04-07T05:59:25.394Z,29.30
2018-04-07T06:01:53.011Z,23.90
2018-04-07T06:04:20.588Z,21.93
2018-04-07T06:06:48.198Z,27.37
2018-04-07T06:09:15.768Z,25.20
2018-04-07T06:11:44.192Z,23.37
2018-04-07T06:14:11.800Z,26.20
2018-04-07T06:16:39.443Z,26.10
2018-04-07T06:19:07.011Z,24.77
2018-04-07T06:21:34.607Z,23.27
2018-04-07T06:24:02.173Z,22.60
2018-04-07T06:26:29.931Z,17.93
2018-04-07T06:28:57.540Z,16.93
2018-04-07T06:31:25.112Z,22.40
2018-04-07T06:33:52.729Z,21.57
2018-04-07T06:36:20.333Z,23.03
2018-04-07T06:38:47.904Z,24.43
2018-04-07T06:41:16.260Z,20.83
2018-04-07T06:43:43.855Z,19.10
2018-04-07T06:46:11.464Z,17.87
2018-04-07T06:48:39.029Z,20.70
2018-04-07T06:51:06.816Z,20.87
2018-04-07T06:53:35.148Z,20.63
2018-04-07T06:56:02.982Z,20.60
2018-04-07T06:58:30.792Z,20.03
2018-04-07T07:00:58.530Z,22.17
2018-04-07T07:03:26.491Z,18.60
2018-04-07T07:05:54.099Z,18.07
2018-04-07T07:08:21.661Z,17.23
2018-04-07T07:10:49.223Z,17.33
2018-04-07T07:13:16.856Z,17.90
2018-04-07T07:15:44.425Z,17.00
2018-04-07T07:18:12.058Z,16.47
2018-04-07T07:20:39.747Z,17.33
2018-04-07T07:23:07.328Z,17.00
2018-04-07T07:25:34.905Z,16.90
2018-04-07T07:28:02.505Z,19.03
2018-04-07T07:30:30.433Z,19.07
2018-04-07T07:32:58.065Z,31.30
2018-04-07T07:35:25.668Z,22.63
2018-04-07T07:37:53.237Z,43.63
2018-04-07T07:40:20.806Z,25.93
2018-04-07T07:42:48.409Z,25.90
2018-04-07T07:45:15.968Z,19.00
2018-04-07T07:47:44.593Z,20.10
2018-04-07T07:50:12.193Z,20.83
2018-04-07T07:52:39.916Z,19.10
2018-04-07T07:55:07.479Z,16.43
2018-04-07T07:57:35.442Z,17.50
2018-04-07T08:00:03.067Z,18.37
2018-04-07T08:02:30.665Z,15.43
2018-04-07T08:04:58.264Z,12.93
2018-04-07T08:07:26.117Z,13.80
2018-04-07T08:09:53.747Z,15.93
2018-04-07T08:12:21.349Z,12.50
2018-04-07T08:14:49.067Z,11.20
2018-04-07T08:17:16.747Z,10.13
2018-04-07T08:19:44.373Z,8.43
2018-04-07T08:22:11.961Z,10.43
2018-04-07T08:24:39.535Z,6.80
2018-04-07T08:27:07.153Z,7.60
2018-04-07T08:29:34.879Z,7.40
2018-04-07T08:32:03.302Z,7.23
2018-04-07T08:34:30.912Z,9.57
2018-04-07T08:36:58.651Z,17.13
2018-04-07T08:39:26.265Z,11.87
2018-04-07T08:41:54.007Z,9.30
2018-04-07T08:44:22.515Z,8.17
2018-04-07T08:46:50.397Z,21.60
2018-04-07T08:49:18.017Z,39.37
2018-04-07T08:51:46.356Z,27.37
2018-04-07T08:54:14.096Z,10.33
2018-04-07T08:56:41.739Z,7.90
2018-04-07T08:59:10.352Z,8.80
2018-04-07T09:01:37.925Z,10.87
2018-04-07T09:04:05.611Z,10.13
2018-04-07T09:06:33.183Z,7.87
2018-04-07T09:09:02.259Z,7.60
2018-04-07T09:11:29.998Z,7.70
2018-04-07T09:13:57.569Z,8.17
2018-04-07T09:16:25.318Z,7.67
2018-04-07T09:18:52.936Z,7.27
2018-04-07T09:21:20.496Z,6.60
2018-04-07T09:23:48.824Z,6.83
2018-04-07T09:26:16.659Z,5.90
2018-04-07T09:28:44.262Z,6.60
2018-04-07T09:31:32.793Z,6.83
2018-04-07T09:34:00.361Z,77.30
2018-04-07T09:36:27.936Z,8.20
2018-04-07T09:38:55.537Z,6.73
2018-04-07T09:41:23.406Z,8.03
2018-04-07T09:43:50.987Z,9.80
2018-04-07T09:46:18.599Z,7.50
2018-04-07T09:48:46.932Z,8.07
2018-04-07T09:51:14.505Z,7.57
2018-04-07T09:53:42.117Z,7.00
2018-04-07T09:56:09.685Z,6.97
2018-04-07T09:58:37.245Z,7.97
2018-04-07T10:01:04.966Z,6.93
2018-04-07T10:03:32.548Z,8.30
2018-04-07T10:06:00.128Z,14.80
2018-04-07T10:08:27.732Z,12.27
2018-04-07T10:10:55.337Z,6.77
2018-04-07T10:13:22.904Z,17.40
2018-04-07T10:15:50.497Z,6.13
2018-04-07T10:18:18.063Z,5.90
2018-04-07T10:20:45.856Z,7.00
2018-04-07T10:23:14.217Z,6.87
2018-04-07T10:25:41.799Z,6.63
2018-04-07T10:28:10.126Z,6.87
2018-04-07T10:30:38.209Z,6.50
2018-04-07T10:33:05.939Z,10.50
2018-04-07T10:35:33.595Z,7.63
2018-04-07T10:38:01.360Z,13.43
2018-04-07T10:40:28.928Z,7.23
2018-04-07T10:42:56.511Z,13.80
2018-04-07T10:45:24.112Z,7.60
2018-04-07T10:47:52.544Z,11.77
2018-04-07T10:50:20.624Z,7.73
2018-04-07T10:52:48.266Z,8.97
2018-04-07T10:55:15.968Z,9.93
2018-04-07T10:57:44.593Z,9.13
2018-04-07T11:00:12.207Z,8.33
2018-04-07T11:02:40.548Z,8.07
2018-04-07T11:05:08.124Z,11.00
2018-04-07T11:07:36.085Z,9.63
2018-04-07T11:10:03.684Z,11.67
2018-04-07T11:12:31.451Z,9.10
2018-04-07T11:14:59.829Z,8.63
2018-04-07T11:17:28.312Z,8.77
2018-04-07T11:19:56.641Z,6.90
2018-04-07T11:22:24.250Z,7.50
2018-04-07T11:24:52.594Z,8.33
2018-04-07T11:27:20.163Z,8.10
2018-04-07T11:29:47.771Z,7.57
2018-04-07T11:32:15.343Z,8.20
2018-04-07T11:34:42.935Z,8.77
2018-04-07T11:37:10.552Z,9.43
2018-04-07T11:39:38.138Z,9.00
2018-04-07T11:42:05.707Z,10.60
2018-04-07T11:44:33.546Z,8.17
2018-04-07T11:47:01.119Z,8.03
2018-04-07T11:49:28.712Z,8.47
2018-04-07T11:51:57.087Z,8.77
2018-04-07T11:54:25.008Z,8.90
2018-04-07T11:56:52.872Z,10.43
2018-04-07T11:59:20.545Z,9.07
2018-04-07T12:01:48.129Z,8.83
2018-04-07T12:04:15.700Z,9.17
2018-04-07T12:06:44.232Z,9.77
2018-04-07T12:09:11.812Z,9.00
2018-04-07T12:11:39.390Z,9.33
2018-04-07T12:14:07.195Z,14.33
2018-04-07T12:16:34.783Z,14.33
2018-04-07T12:19:02.638Z,15.37
2018-04-07T12:21:30.320Z,16.93
2018-04-07T12:23:58.028Z,10.33
2018-04-07T12:26:26.501Z,9.23
2018-04-07T12:28:55.376Z,9.37
2018-04-07T12:31:23.190Z,14.37
2018-04-07T12:33:50.761Z,10.03
2018-04-07T12:36:18.363Z,10.23
2018-04-07T12:38:46.696Z,10.27
2018-04-07T12:41:14.256Z,9.70
2018-04-07T12:43:41.867Z,9.03
2018-04-07T12:46:09.509Z,9.60
2018-04-07T12:48:37.075Z,9.57
2018-04-07T12:51:04.691Z,11.00
2018-04-07T12:53:32.271Z,9.63
2018-04-07T12:56:00.009Z,11.40
2018-04-07T12:58:27.958Z,11.17
2018-04-07T13:00:55.718Z,11.83
2018-04-07T13:03:23.432Z,14.30
2018-04-07T13:05:51.049Z,12.57
2018-04-07T13:08:18.621Z,10.90
2018-04-07T13:10:46.197Z,10.13
2018-04-07T13:13:14.764Z,11.10
2018-04-07T13:15:42.523Z,13.63
2018-04-07T13:18:10.096Z,10.87
2018-04-07T13:20:37.748Z,11.10
2018-04-07T13:23:05.337Z,9.67
2018-04-07T13:25:32.965Z,28.63
2018-04-07T13:28:00.704Z,19.57
2018-04-07T13:30:28.494Z,20.63
2018-04-07T13:32:56.152Z,25.90
2018-04-07T13:35:23.756Z,17.37
2018-04-07T13:37:51.481Z,17.40
2018-04-07T13:40:19.061Z,12.23
2018-04-07T13:42:46.680Z,12.77
2018-04-07T13:45:14.260Z,12.00
2018-04-07T13:47:41.874Z,15.00
2018-04-07T13:50:09.491Z,14.53
2018-04-07T13:52:37.231Z,10.37
2018-04-07T13:55:04.995Z,21.20
2018-04-07T13:57:32.780Z,18.87
2018-04-07T14:00:00.346Z,13.03
2018-04-07T14:02:27.963Z,14.13
2018-04-07T14:04:55.771Z,18.03
2018-04-07T14:07:23.604Z,10.87
2018-04-07T14:09:51.179Z,17.80
2018-04-07T14:12:18.788Z,19.93
2018-04-07T14:14:46.413Z,22.13
2018-04-07T14:17:13.985Z,20.00
2018-04-07T14:19:41.790Z,20.03
2018-04-07T14:22:09.380Z,19.00
2018-04-07T14:24:36.945Z,14.90
2018-04-07T14:27:04.536Z,13.67
2018-04-07T14:29:32.864Z,15.63
2018-04-07T14:32:00.670Z,14.87
2018-04-07T14:34:28.591Z,15.60
2018-04-07T14:36:56.161Z,19.10
2018-04-07T14:39:23.747Z,19.37
2018-04-07T14:41:51.552Z,24.87
2018-04-07T14:44:19.460Z,14.60
2018-04-07T14:46:47.070Z,25.17
2018-04-07T14:49:15.427Z,24.37
2018-04-07T14:51:43.032Z,23.13
2018-04-07T14:54:10.799Z,21.20
2018-04-07T14:56:38.558Z,16.77
2018-04-07T14:59:06.101Z,14.53
2018-04-07T15:01:34.049Z,17.30
2018-04-07T15:04:02.506Z,18.83
2018-04-07T15:06:30.072Z,25.57
2018-04-07T15:08:58.651Z,13.03
2018-04-07T15:11:26.284Z,11.40
2018-04-07T15:13:53.857Z,15.23
2018-04-07T15:16:21.611Z,14.47
2018-04-07T15:18:49.238Z,17.43
2018-04-07T15:21:16.865Z,12.13
2018-04-07T15:23:44.443Z,12.23
2018-04-07T15:26:12.306Z,11.80
2018-04-07T15:28:40.714Z,12.37
2018-04-07T15:31:08.410Z,11.00
2018-04-07T15:33:36.070Z,13.20
2018-04-07T15:36:03.648Z,13.87
2018-04-07T15:38:31.304Z,16.80
2018-04-07T15:40:59.040Z,12.87
2018-04-07T15:43:26.617Z,13.97
2018-04-07T15:45:54.183Z,20.87
2018-04-07T15:48:21.790Z,22.20
2018-04-07T15:50:49.375Z,21.33
2018-04-07T15:53:16.945Z,28.00
2018-04-07T15:55:44.559Z,39.63
2018-04-07T15:58:12.146Z,20.73
2018-04-07T16:00:39.953Z,18.93
2018-04-07T16:03:08.325Z,20.43
2018-04-07T16:05:35.896Z,14.90
2018-04-07T16:08:04.277Z,13.60
2018-04-07T16:10:32.042Z,13.13
2018-04-07T16:13:00.380Z,20.47
2018-04-07T16:15:28.161Z,17.40
2018-04-07T16:17:56.681Z,16.17
2018-04-07T16:20:24.321Z,18.00
2018-04-07T16:22:52.651Z,15.47
2018-04-07T16:25:21.420Z,14.20
2018-04-07T16:27:49.129Z,14.23
2018-04-07T16:30:17.519Z,12.57
2018-04-07T16:32:45.240Z,12.60
2018-04-07T16:35:12.862Z,12.70
2018-04-07T16:37:40.644Z,12.97
2018-04-07T16:40:08.289Z,13.20
2018-04-07T16:42:35.972Z,22.10
2018-04-07T16:45:03.545Z,15.30
2018-04-07T16:47:31.184Z,23.63
2018-04-07T16:49:58.883Z,45.53
2018-04-07T16:52:26.490Z,41.90
2018-04-07T16:54:54.142Z,38.80
2018-04-07T16:57:21.769Z,48.63
2018-04-07T16:59:49.562Z,48.50
2018-04-07T17:02:17.680Z,54.03
2018-04-07T17:04:45.308Z,63.07
2018-04-07T17:07:12.889Z,74.53
2018-04-07T17:09:41.160Z,68.93
2018-04-07T17:12:09.222Z,78.20
2018-04-07T17:14:36.791Z,119.23
2018-04-07T17:17:04.600Z,139.90
2018-04-07T17:19:33.037Z,138.53
2018-04-07T17:22:01.557Z,97.33
2018-04-07T17:24:29.583Z,89.40
2018-04-07T17:26:57.164Z,62.57
2018-04-07T17:29:24.753Z,83.23
2018-04-07T17:31:53.120Z,92.23
2018-04-07T17:34:20.688Z,74.80
2018-04-07T17:36:49.110Z,70.37
2018-04-07T17:39:16.716Z,57.40
2018-04-07T17:41:44.314Z,53.17
2018-04-07T17:44:11.872Z,53.57
2018-04-07T17:46:39.502Z,52.90
2018-04-07T17:49:07.074Z,55.53
2018-04-07T17:51:35.404Z,69.00
2018-04-07T17:54:03.016Z,69.23
2018-04-07T17:56:30.580Z,63.60
2018-04-07T17:58:58.167Z,57.23
2018-04-07T18:01:26.004Z,59.80
2018-04-07T18:03:53.613Z,58.73
2018-04-07T18:06:21.301Z,50.80
2018-04-07T18:08:49.687Z,52.27
2018-04-07T18:11:17.304Z,51.27
2018-04-07T18:13:45.055Z,80.60
2018-04-07T18:16:12.852Z,74.03
2018-04-07T18:18:40.639Z,139.80
2018-04-07T18:21:08.974Z,87.87
2018-04-07T18:23:36.597Z,88.30
2018-04-07T18:26:04.163Z,70.13
2018-04-07T18:28:31.833Z,94.63
2018-04-07T18:30:59.446Z,65.90
2018-04-07T18:33:27.181Z,69.30
2018-04-07T18:35:54.748Z,80.60
2018-04-07T18:38:22.496Z,84.83
2018-04-07T18:40:50.224Z,90.07
2018-04-07T18:43:17.800Z,82.67
2018-04-07T18:45:45.423Z,69.17
2018-04-07T18:48:12.988Z,67.87
2018-04-07T18:50:40.562Z,64.50
2018-04-07T18:53:08.221Z,55.60
2018-04-07T18:55:35.961Z,59.00
2018-04-07T18:58:04.431Z,56.90
2018-04-07T19:00:32.812Z,65.47
2018-04-07T19:03:00.724Z,68.73
2018-04-07T19:05:28.288Z,87.87
2018-04-07T19:07:56.100Z,248.17
2018-04-07T19:10:24.592Z,238.60
2018-04-07T19:12:52.181Z,162.27
2018-04-07T19:15:20.264Z,136.23
2018-04-07T19:17:48.021Z,166.77
2018-04-07T19:20:16.308Z,194.73
2018-04-07T19:22:43.950Z,141.23
2018-04-07T19:25:12.303Z,88.33
2018-04-07T19:27:40.094Z,79.33
2018-04-07T19:30:07.719Z,67.03
2018-04-07T19:32:35.292Z,59.07
2018-04-07T19:35:03.120Z,58.97
2018-04-07T19:37:30.772Z,62.07
2018-04-07T19:39:59.421Z,225.43
2018-04-07T19:42:27.952Z,155.57
2018-04-07T19:44:55.610Z,175.50
2018-04-07T19:47:23.264Z,176.40
2018-04-07T19:49:50.921Z,161.33
2018-04-07T19:52:18.600Z,117.23
2018-04-07T19:54:46.301Z,82.40
2018-04-07T19:57:14.316Z,82.53
2018-04-07T19:59:42.053Z,170.30
2018-04-07T20:02:09.634Z,225.27
2018-04-07T20:04:37.232Z,290.47
2018-04-07T20:07:05.771Z,251.10
2018-04-07T20:09:33.678Z,230.37
2018-04-07T20:12:01.264Z,111.00
2018-04-07T20:14:29.683Z,164.83
2018-04-07T20:16:57.360Z,146.17
2018-04-07T20:19:24.988Z,156.07
2018-04-07T20:21:52.602Z,131.23
2018-04-07T20:24:20.735Z,131.77
2018-04-07T20:26:48.358Z,122.67
2018-04-07T20:29:15.981Z,102.77
2018-04-07T20:31:43.917Z,105.97
2018-04-07T20:34:11.717Z,73.70
2018-04-07T20:36:39.768Z,82.37
2018-04-07T20:39:07.571Z,67.43
2018-04-07T20:41:36.402Z,69.90
2018-04-07T20:44:04.040Z,69.20
2018-04-07T20:46:31.780Z,58.10
2018-04-07T20:49:00.122Z,47.77
2018-04-07T20:51:27.731Z,57.83
2018-04-07T20:53:55.312Z,103.23
2018-04-07T20:56:23.142Z,140.13
2018-04-07T20:58:50.761Z,155.13
2018-04-07T21:01:18.402Z,165.17
2018-04-07T21:03:46.166Z,108.53
2018-04-07T21:06:13.975Z,112.97
2018-04-07T21:08:41.903Z,108.13
2018-04-07T21:11:09.507Z,133.17
2018-04-07T21:13:37.153Z,89.53
2018-04-07T21:16:05.293Z,88.47
2018-04-07T21:18:32.860Z,70.13
2018-04-07T21:21:00.481Z,55.70
2018-04-07T21:23:28.172Z,55.77
2018-04-07T21:25:55.824Z,60.67
2018-04-07T21:28:23.451Z,59.67
2018-04-07T21:30:51.864Z,60.13
2018-04-07T21:33:19.718Z,56.10
2018-04-07T21:35:47.605Z,59.60
2018-04-07T21:38:15.268Z,60.43
2018-04-07T21:40:42.847Z,62.20
2018-04-07T21:43:10.461Z,63.63
2018-04-07T21:45:38.050Z,62.00
2018-04-07T21:48:05.756Z,63.67
2018-04-07T21:50:33.979Z,80.20
2018-04-07T21:53:01.678Z,76.30
2018-04-07T21:55:29.289Z,62.17
2018-04-07T21:57:56.903Z,71.57
2018-04-07T22:00:24.826Z,77.00
2018-04-07T22:02:52.392Z,65.73
2018-04-07T22:05:19.991Z,65.47
2018-04-07T22:07:48.352Z,72.83
2018-04-07T22:10:17.091Z,62.73
2018-04-07T22:12:44.741Z,68.90
2018-04-07T22:15:12.644Z,65.70
2018-04-07T22:17:40.398Z,68.63
2018-04-07T22:20:08.206Z,62.70
2018-04-07T22:22:36.549Z,62.77
2018-04-07T22:25:04.139Z,63.67
2018-04-07T22:27:31.865Z,67.27
2018-04-07T22:29:59.460Z,72.30
2018-04-07T22:32:27.021Z,66.37
2018-04-07T22:34:56.445Z,78.10
2018-04-07T22:37:24.855Z,70.97
2018-04-07T22:39:52.535Z,59.17
2018-04-07T22:42:20.268Z,56.87
2018-04-07T22:44:47.986Z,54.23
2018-04-07T22:47:15.780Z,57.93
2018-04-07T22:49:43.388Z,55.03
2018-04-07T22:52:10.967Z,55.00
2018-04-07T22:54:38.591Z,59.37
2018-04-07T22:57:06.216Z,55.63
2018-04-07T22:59:34.666Z,53.83
2018-04-07T23:02:02.706Z,55.57
2018-04-07T23:04:30.318Z,50.37
2018-04-07T23:06:57.892Z,44.40
2018-04-07T23:09:25.447Z,44.50
2018-04-07T23:11:53.063Z,40.47
2018-04-07T23:14:20.619Z,41.47
2018-04-07T23:16:48.179Z,31.33
2018-04-07T23:19:15.799Z,32.53
2018-04-07T23:21:43.880Z,32.80
2018-04-07T23:24:11.541Z,33.03
2018-04-07T23:26:39.148Z,31.90
2018-04-07T23:29:07.523Z,31.80
2018-04-07T23:31:35.083Z,27.40
2018-04-07T23:34:02.803Z,27.93
2018-04-07T23:36:30.381Z,26.57
2018-04-07T23:38:58.025Z,27.50
2018-04-07T23:41:25.992Z,29.57
2018-04-07T23:43:53.788Z,29.80
2018-04-07T23:46:21.407Z,45.47
2018-04-07T23:48:49.168Z,49.83
2018-04-07T23:51:16.780Z,45.70
2018-04-07T23:53:45.116Z,56.60
2018-04-07T23:56:12.713Z,48.67
2018-04-07T23:58:40.555Z,40.57
